MDT,Max TemperatureF,Mean TemperatureF,Min TemperatureF,Max Dew PointF,MeanDew PointF,Min DewpointF,Max Humidity, Mean Humidity, Min Humidity, Max Sea Level PressureIn, Mean Sea Level PressureIn, Min Sea Level PressureIn, Max VisibilityMiles, Mean VisibilityMiles, Min VisibilityMiles, Max Wind SpeedMPH, Mean Wind SpeedMPH, Max Gust SpeedMPH,PrecipitationIn, CloudCover, Events, WindDirDegrees
2013-9-1,86,60,34,32,28,24,64,38,11,30.06,29.94,29.85,,,,13,2,20,0.00,,,148
2013-9-2,79,62,44,50,37,29,61,43,25,29.91,29.87,29.83,,,,12,3,17,0.00,,,212
2013-9-3,68,59,49,55,50,45,93,71,49,30.06,30.00,29.89,,,,16,3,22,0.04,,,152
2013-9-4,79,62,44,55,48,44,100,66,31,30.14,30.05,29.95,,,,16,4,25,0.07,,,141
2013-9-5,76,63,50,54,49,45,96,69,41,30.03,29.94,29.86,,,,18,6,28,0.14,,,128
2013-9-6,76,58,40,51,37,24,93,55,17,30.06,29.95,29.90,,,,16,3,24,0.00,,,175
2013-9-7,77,53,29,34,28,21,85,49,13,30.11,30.02,29.93,,,,14,3,21,0.00,,,185
2013-9-8,75,54,33,39,34,31,96,58,20,30.03,29.94,29.86,,,,16,3,23,0.00,,,304
2013-9-9,74,52,30,38,34,30,100,63,25,30.01,29.95,29.88,,,,12,3,20,0.00,,,324
2013-9-10,78,54,30,37,30,23,92,53,13,30.09,30.00,29.91,,,,10,3,16,0.00,,,234
2013-9-11,82,56,30,34,29,24,85,49,13,30.17,30.04,29.96,,,,15,3,24,0.00,,,51
2013-9-12,77,63,49,55,45,34,96,67,37,30.03,29.97,29.91,,,,13,2,18,0.15,,,132
2013-9-13,71,58,45,52,48,45,100,70,40,29.97,29.89,29.77,,,,14,3,23,0.10,,,176
2013-9-14,69,57,45,52,46,41,100,70,40,29.94,29.88,29.82,,,,16,1,23,0.00,,,53
2013-9-15,73,59,44,46,44,42,92,64,35,29.93,29.87,29.78,,,,18,7,29,0.00,,,150
2013-9-16,75,57,39,48,39,28,93,57,20,29.87,29.78,29.72,,,,16,5,24,0.00,,,185
2013-9-17,68,52,36,39,33,21,85,53,20,29.78,29.67,29.56,,,,13,2,20,0.00,,,188
2013-9-18,52,40,27,38,32,26,92,65,38,30.11,29.87,29.62,,,,14,3,21,0.09,,,322
2013-9-19,64,42,20,31,24,19,100,60,19,30.26,30.13,30.02,,,,8,2,12,0.00,,,196
2013-9-20,74,48,21,28,21,11,92,51,9,30.09,29.89,29.68,,,,15,5,24,0.00,,,154
2013-9-21,68,50,31,31,24,19,69,43,16,29.74,29.61,29.50,,,,16,5,23,0.00,,,14
2013-9-22,56,43,29,36,30,27,85,63,41,29.82,29.65,29.49,,,,13,2,18,0.00,,,202
2013-9-23,57,45,33,37,31,26,100,66,32,29.98,29.90,29.75,,,,13,3,17,0.04,,,174
2013-9-24,50,40,30,40,33,28,100,83,66,29.94,29.81,29.68,,,,15,3,21,0.24,,,336
2013-9-25,41,37,32,36,33,32,100,87,73,29.68,29.62,29.54,,,,15,2,21,0.26,,,331
2013-9-26,44,38,32,34,31,28,96,81,65,29.89,29.74,29.62,,,,12,2,17,0.03,,,345
2013-9-27,48,38,28,29,26,21,92,65,38,30.03,29.97,29.90,,,,14,2,20,0.00,,,325
2013-9-28,54,45,35,38,34,27,92,71,50,30.02,29.96,29.83,,,,20,8,28,0.06,,,151
2013-9-29,44,42,40,43,40,38,100,88,76,29.80,29.74,29.68,,,,16,8,24,1.85,,,149
2013-9-30,48,39,29,46,35,21,100,69,37,29.98,29.76,29.59,,,,20,5,33,0.98,,,165